Ternopil, Ukraine
Current Conditions -  °F | °C
As of 2:00 PM on Friday 31 Oct 2014 (Local Time) from UKLI Reporting Station
Overcast Overcast  
Wind Chill: 40°   Ceiling: 1000
Heat Index: 43°   Visibility: 6mi
Dew Point: 37°   Wind: 4mph
Humidity: 81%   Direction: 290°WNW
Pressure: 30.33"   Gusts: NA
Location:  49.55°N, 25.58°E
Report Text: UKLI 311100Z 29002MPS 250V340 9999 OVC010 06/03 Q1027 NOSIG
Loading
Personal Weather Stations






























Interactive Weather Map
Tropical Storm Tracking
New forecast layout! Learn more

10-Day Weather Forecast

Advertisements
Track Severe Weather on mobile